Svitzer Sines — CSYI4 — position and weather

sailwx.info

Track history (hours):
 
Tides and Currents Weather Stations Pressure Air Temp Water Temp Dewpoint Dewpoint Depression Visibility Wind Speed Wind Dir Waves Ship Positions

Svitzer Sines

Last reported at 2018-Feb-25 00:00 UTC. Time now 2018-Feb-25 00:22 UTC.
Position N 37°53' W 009°18'.

Length 28 m; draft 4.8 m.

Type: Other ship. MMSI: 263601890.

Date/timePositionNaut miles runAvg speedWind from/ knotsBaromVisibWave heightAir tempDewpointWater temp
2018-Feb-25 00:00N 37°53' W 009°18'510.8
2018-Feb-24 23:30N 37°59' W 009°18'510.8
2018-Feb-24 23:00N 38°04' W 009°19'510.6
2018-Feb-24 22:30N 38°09' W 009°20'510.8
2018-Feb-24 22:00N 38°15' W 009°20'510.9
2018-Feb-24 21:30N 38°20' W 009°21'510.7
2018-Feb-24 21:00N 38°25' W 009°22'510.7
2018-Feb-24 20:30N 38°31' W 009°23'510.4
2018-Feb-24 20:00N 38°36' W 009°23'5 9.4
2018-Feb-24 19:30N 38°40' W 009°19'4 8.0
2018-Feb-24 19:00N 38°41' W 009°14'4 8.0
2018-Feb-24 18:30N 38°42' W 009°10'0 0.2
2018-Feb-24 18:00N 38°42' W 009°10'0 0.0
2018-Feb-24 17:30N 38°42' W 009°10'0 0.0
2018-Feb-24 17:00N 38°42' W 009°10'0 0.0
2018-Feb-24 16:30N 38°42' W 009°10'0 0.0
2018-Feb-24 16:00N 38°42' W 009°10'0 0.0
2018-Feb-24 15:30N 38°42' W 009°10'0 0.0
2018-Feb-24 15:00N 38°42' W 009°10'0 0.0
2018-Feb-24 14:30N 38°42' W 009°10'0 0.0
2018-Feb-24 14:00N 38°42' W 009°10'0 0.0
2018-Feb-24 13:30N 38°42' W 009°10'0 0.0
2018-Feb-24 12:58N 38°42' W 009°10'0 0.0
2018-Feb-24 12:30N 38°42' W 009°10'0 0.0
2018-Feb-24 12:00N 38°42' W 009°10'0 0.0
2018-Feb-24 11:30N 38°42' W 009°10'0 0.0
2018-Feb-24 11:00N 38°42' W 009°10'0 0.0
2018-Feb-24 10:30N 38°42' W 009°10'0 0.0
2018-Feb-24 09:59N 38°42' W 009°10'0 0.0
2018-Feb-24 09:30N 38°42' W 009°10'0 0.0
2018-Feb-24 08:59N 38°42' W 009°10'0 0.0
2018-Feb-24 08:30N 38°42' W 009°10'0 0.0
2018-Feb-24 08:00N 38°42' W 009°10'0 0.0
2018-Feb-24 07:30N 38°42' W 009°10'0 0.0
2018-Feb-24 07:00N 38°42' W 009°10'0 0.0
2018-Feb-24 06:30N 38°42' W 009°10'0 0.0
2018-Feb-24 06:00N 38°42' W 009°10'0 0.0
2018-Feb-24 05:30N 38°42' W 009°10'0 0.0
2018-Feb-24 05:00N 38°42' W 009°10'0 0.0
2018-Feb-24 04:30N 38°42' W 009°10'0 0.0
2018-Feb-24 04:00N 38°42' W 009°10'0 0.0
2018-Feb-24 03:26N 38°42' W 009°10'0 0.0
2018-Feb-24 02:59N 38°42' W 009°10'0 0.0
2018-Feb-24 02:30N 38°42' W 009°10'0 0.0
2018-Feb-24 02:00N 38°42' W 009°10'0 0.0
2018-Feb-24 01:30N 38°42' W 009°10'0 0.0
2018-Feb-24 01:00N 38°42' W 009°10'0 0.0
2018-Feb-24 00:30N 38°42' W 009°10'0 0.0
2018-Feb-23 23:59N 38°42' W 009°10'0 0.0
2018-Feb-23 23:30N 38°42' W 009°10'0 0.0
2018-Feb-23 23:00N 38°42' W 009°10'0 0.0
2018-Feb-23 22:30N 38°42' W 009°10'0 0.0
2018-Feb-23 22:00N 38°42' W 009°10'0 0.8
2018-Feb-23 21:30N 38°42' W 009°09'3 5.9
2018-Feb-23 21:00N 38°44' W 009°06'1 1.8
2018-Feb-23 20:30N 38°43' W 009°06'1 2.1
2018-Feb-23 20:00N 38°42' W 009°07'1 1.3
2018-Feb-23 19:30N 38°42' W 009°07'0 0.0
2018-Feb-23 19:00N 38°42' W 009°07'0 0.0
2018-Feb-23 18:30N 38°42' W 009°07'0 0.0
2018-Feb-23 18:00N 38°42' W 009°08'0 0.0
2018-Feb-23 17:30N 38°42' W 009°08'1 1.8
2018-Feb-23 17:00N 38°42' W 009°09'1 1.7
2018-Feb-23 16:28N 38°42' W 009°10'0 0.0
2018-Feb-23 15:58N 38°42' W 009°10'0 0.0
2018-Feb-23 15:30N 38°42' W 009°10'2 3.1
2018-Feb-23 14:59N 38°41' W 009°08'0 0.1
2018-Feb-23 14:28N 38°41' W 009°08'0 0.1
2018-Feb-23 14:00N 38°42' W 009°08'0 0.0
2018-Feb-23 13:30N 38°42' W 009°08'0 0.0
2018-Feb-23 13:00N 38°42' W 009°08'0 0.0
2018-Feb-23 12:30N 38°42' W 009°08'2 3.1
2018-Feb-23 12:00N 38°42' W 009°10'0 0.0
2018-Feb-23 11:30N 38°42' W 009°10'0 0.0
2018-Feb-23 11:00N 38°42' W 009°10'0 0.0
2018-Feb-23 10:30N 38°42' W 009°10'0 0.0
2018-Feb-23 10:00N 38°42' W 009°10'0 0.0
2018-Feb-23 09:30N 38°42' W 009°10'0 0.0
2018-Feb-23 09:00N 38°42' W 009°10'0 0.0
2018-Feb-23 08:30N 38°42' W 009°10'0 0.0
2018-Feb-23 08:00N 38°42' W 009°10'0 0.0
2018-Feb-23 07:30N 38°42' W 009°10'0 0.0
2018-Feb-23 07:00N 38°42' W 009°10'0 0.0
2018-Feb-23 06:28N 38°42' W 009°10'0 0.0
2018-Feb-23 06:00N 38°42' W 009°10'0 0.0
2018-Feb-23 05:30N 38°42' W 009°10'0 0.0
2018-Feb-23 05:00N 38°42' W 009°10'0 0.0
2018-Feb-23 04:30N 38°42' W 009°10'0 0.0
2018-Feb-23 04:00N 38°42' W 009°10'0 0.0
2018-Feb-23 03:29N 38°42' W 009°10'0 0.0
2018-Feb-23 03:00N 38°42' W 009°10'0 0.0
2018-Feb-23 02:30N 38°42' W 009°10'0 0.0
2018-Feb-23 02:00N 38°42' W 009°10'0 0.0
2018-Feb-23 01:29N 38°42' W 009°10'0 0.0
2018-Feb-23 01:00N 38°42' W 009°10'0 0.0
2018-Feb-23 00:30N 38°42' W 009°10'0 0.0
2018-Feb-23 00:00N 38°42' W 009°10'0 0.0
2018-Feb-22 23:30N 38°42' W 009°10'2 3.1
2018-Feb-22 23:00N 38°42' W 009°12'2 4.4
2018-Feb-22 22:30N 38°41' W 009°14'0 0.2
2018-Feb-22 22:00N 38°41' W 009°14'3 6.0
2018-Feb-22 21:30N 38°42' W 009°10'1 1.6
2018-Feb-22 21:00N 38°42' W 009°10'0 0.0
2018-Feb-22 20:30N 38°42' W 009°10'0 0.0
2018-Feb-22 19:59N 38°42' W 009°10'0 0.0
2018-Feb-22 19:30N 38°42' W 009°10'0 0.0
2018-Feb-22 19:00N 38°42' W 009°10'0 0.0
2018-Feb-22 18:30N 38°42' W 009°10'0 0.0
2018-Feb-22 18:00N 38°42' W 009°10'0 0.0
2018-Feb-22 17:30N 38°42' W 009°10'0 0.0
2018-Feb-22 16:56N 38°42' W 009°10'0 0.0
2018-Feb-22 16:30N 38°42' W 009°10'0 0.0
2018-Feb-22 15:56N 38°42' W 009°10'0 0.0
2018-Feb-22 15:30N 38°42' W 009°10'0 0.0
2018-Feb-22 14:59N 38°42' W 009°10'0 0.0
2018-Feb-22 14:29N 38°42' W 009°10'0 0.0
2018-Feb-22 14:00N 38°42' W 009°10'0 0.0
2018-Feb-22 13:30N 38°42' W 009°10'0 0.0
2018-Feb-22 12:59N 38°42' W 009°10'0 0.0
2018-Feb-22 12:30N 38°42' W 009°10'0 0.0
2018-Feb-22 12:00N 38°42' W 009°10'0 0.0
2018-Feb-22 11:29N 38°42' W 009°10'0 0.0
2018-Feb-22 11:00N 38°42' W 009°10'0 0.0
2018-Feb-22 10:30N 38°42' W 009°10'0 0.0
2018-Feb-22 10:00N 38°42' W 009°10'0 0.0
2018-Feb-22 09:30N 38°42' W 009°10'0 0.0
2018-Feb-22 09:00N 38°42' W 009°10'0 0.0
2018-Feb-22 08:30N 38°42' W 009°10'1 2.2
2018-Feb-22 08:00N 38°42' W 009°08'2 3.9
2018-Feb-22 07:30N 38°44' W 009°06'2 3.2
2018-Feb-22 07:00N 38°42' W 009°08'2 3.2
2018-Feb-22 06:30N 38°42' W 009°10'2 3.6
2018-Feb-22 05:59N 38°41' W 009°12'2 4.4
2018-Feb-22 05:30N 38°42' W 009°10'0 0.2
2018-Feb-22 05:00N 38°42' W 009°10'0 0.0
2018-Feb-22 04:30N 38°42' W 009°10'0 0.0
2018-Feb-22 04:00N 38°42' W 009°10'0 0.0
2018-Feb-22 03:30N 38°42' W 009°10'0 0.0
2018-Feb-22 03:00N 38°42' W 009°10'0 0.0
2018-Feb-22 02:30N 38°42' W 009°10'0 0.0
2018-Feb-22 01:59N 38°42' W 009°10'0 0.0
2018-Feb-22 01:29N 38°42' W 009°10'0 0.0
2018-Feb-22 01:00N 38°42' W 009°10'0 0.0
2018-Feb-22 00:30N 38°42' W 009°10'0 0.0
2018-Feb-22 00:00N 38°42' W 009°10'0 0.0
2018-Feb-21 23:30N 38°42' W 009°10'0 0.0
2018-Feb-21 23:00N 38°42' W 009°10'0 0.0
2018-Feb-21 22:30N 38°42' W 009°10'0 0.0
2018-Feb-21 22:00N 38°42' W 009°10'0 0.0
2018-Feb-21 21:30N 38°42' W 009°10'0 0.0
2018-Feb-21 20:59N 38°42' W 009°10'0 0.0
2018-Feb-21 20:30N 38°42' W 009°10'0 0.0
2018-Feb-21 19:59N 38°42' W 009°10'0 0.0
2018-Feb-21 19:30N 38°42' W 009°10'0 0.0
2018-Feb-21 19:00N 38°42' W 009°10'1 1.3
2018-Feb-21 18:30N 38°42' W 009°10'0 0.7
2018-Feb-21 18:00N 38°42' W 009°10'0 0.6
2018-Feb-21 17:30N 38°42' W 009°10'0 0.0
2018-Feb-21 17:00N 38°42' W 009°10'0 0.0
2018-Feb-21 16:30N 38°42' W 009°10'0 0.0
2018-Feb-21 16:00N 38°42' W 009°10'0 0.0
2018-Feb-21 15:27N 38°42' W 009°10'0 0.0
2018-Feb-21 14:59N 38°42' W 009°10'0 0.7
2018-Feb-21 14:30N 38°42' W 009°10'2 4.0
2018-Feb-21 14:00N 38°41' W 009°12'0 0.9
2018-Feb-21 13:30N 38°41' W 009°12'0 0.0
2018-Feb-21 13:00N 38°41' W 009°12'0 0.0
2018-Feb-21 12:29N 38°41' W 009°12'0 0.5
2018-Feb-21 12:00N 38°41' W 009°12'1 1.2
2018-Feb-21 11:30N 38°41' W 009°11'1 2.6
2018-Feb-21 11:00N 38°41' W 009°13'3 5.3
2018-Feb-21 10:30N 38°42' W 009°10'0 0.0
2018-Feb-21 10:00N 38°42' W 009°10'0 0.0
2018-Feb-21 09:30N 38°42' W 009°10'0 0.0
2018-Feb-21 08:58N 38°42' W 009°10'0 0.0
2018-Feb-21 08:30N 38°42' W 009°10'0 0.0
2018-Feb-21 08:00N 38°42' W 009°10'0 0.0
2018-Feb-21 07:29N 38°42' W 009°10'0 0.0
2018-Feb-21 07:00N 38°42' W 009°10'0 0.0
2018-Feb-21 06:30N 38°42' W 009°10'0 0.0
2018-Feb-21 06:00N 38°42' W 009°10'0 0.7
2018-Feb-21 05:30N 38°42' W 009°09'3 6.6
2018-Feb-21 05:00N 38°44' W 009°06'2 3.9
2018-Feb-21 04:30N 38°43' W 009°07'4 8.1
2018-Feb-21 04:00N 38°41' W 009°12'2 4.5
2018-Feb-21 03:29N 38°42' W 009°10'0 0.0
2018-Feb-21 03:00N 38°42' W 009°10'0 0.0
2018-Feb-21 02:30N 38°42' W 009°10'0 0.0
2018-Feb-21 02:00N 38°42' W 009°10'0 0.0
2018-Feb-21 01:30N 38°42' W 009°10'0 0.0
2018-Feb-21 00:59N 38°42' W 009°10'0 0.0
2018-Feb-21 00:30N 38°42' W 009°10'0 0.3
2018-Feb-21 00:00N 38°42' W 009°10'0 0.0
2018-Feb-20 23:30N 38°42' W 009°10'0 0.3
2018-Feb-20 23:00N 38°42' W 009°10'0 0.0
2018-Feb-20 22:30N 38°42' W 009°10'0 0.0
2018-Feb-20 22:00N 38°42' W 009°10'0 0.0
2018-Feb-20 21:30N 38°42' W 009°10'0 0.0
2018-Feb-20 21:00N 38°42' W 009°10'0 0.0
2018-Feb-20 20:30N 38°42' W 009°10'0 0.0
2018-Feb-20 20:00N 38°42' W 009°10'0 0.0
2018-Feb-20 19:29N 38°42' W 009°10'0 0.0
2018-Feb-20 18:59N 38°42' W 009°10'0 0.0
2018-Feb-20 18:30N 38°42' W 009°10'0 0.0
2018-Feb-20 18:00N 38°42' W 009°10'0 0.0
2018-Feb-20 17:30N 38°42' W 009°10'0 0.0
2018-Feb-20 17:00N 38°42' W 009°10'0 0.9
2018-Feb-20 16:30N 38°42' W 009°10'1 1.2
2018-Feb-20 16:00N 38°42' W 009°09'1 1.1
2018-Feb-20 15:30N 38°42' W 009°10'0 0.0
2018-Feb-20 15:00N 38°42' W 009°10'0 0.0
2018-Feb-20 14:30N 38°42' W 009°10'0 0.0
2018-Feb-20 14:00N 38°42' W 009°10'0 0.0
2018-Feb-20 13:30N 38°42' W 009°10'0 0.0
2018-Feb-20 13:00N 38°42' W 009°10'0 0.0
2018-Feb-20 12:30N 38°42' W 009°10'0 0.1
2018-Feb-20 11:17N 38°42' W 009°10'0 0.5
2018-Feb-20 10:59N 38°42' W 009°10'0 0.1
2018-Feb-20 10:30N 38°42' W 009°10'0 0.1
2018-Feb-20 09:32N 38°42' W 009°10'0 0.0
2018-Feb-20 09:16N 38°42' W 009°10'0 0.0
2018-Feb-20 08:57N 38°42' W 009°10'0 1.0
2018-Feb-20 08:29N 38°42' W 009°10'0 0.3
2018-Feb-20 08:00N 38°42' W 009°10'2 2.2
2018-Feb-20 07:19N 38°41' W 009°12'1 3.9
2018-Feb-20 07:00N 38°42' W 009°10'1 1.2
2018-Feb-20 06:30N 38°42' W 009°10'0 0.0
2018-Feb-20 06:00N 38°42' W 009°10'0 0.0
2018-Feb-20 05:30N 38°42' W 009°10'0 0.0
2018-Feb-20 04:59N 38°42' W 009°10'0 0.0
2018-Feb-20 04:30N 38°42' W 009°10'0 0.0
2018-Feb-20 03:59N 38°42' W 009°10'0 0.0
2018-Feb-20 03:30N 38°42' W 009°10'0 0.0
2018-Feb-20 03:00N 38°42' W 009°10'0 0.0
2018-Feb-20 02:30N 38°42' W 009°10'0 0.0
2018-Feb-20 02:00N 38°42' W 009°10'0 0.0
2018-Feb-20 01:29N 38°42' W 009°10'0 0.0
2018-Feb-20 00:20N 38°42' W 009°10'0 0.0
2018-Feb-19 21:54N 38°42' W 009°10'0 0.0
2018-Feb-19 21:30N 38°42' W 009°10'0 0.0
2018-Feb-19 21:00N 38°42' W 009°10'0 0.0
2018-Feb-19 20:30N 38°42' W 009°10'0 0.0
2018-Feb-19 20:00N 38°42' W 009°10'0 0.0
2018-Feb-19 19:30N 38°42' W 009°10'0 0.0
2018-Feb-19 19:00N 38°42' W 009°10'0 0.0
2018-Feb-19 18:30N 38°42' W 009°10'0 0.0
2018-Feb-19 18:00N 38°42' W 009°10'0 0.0
2018-Feb-19 17:30N 38°42' W 009°10'0 0.0
2018-Feb-19 16:57N 38°42' W 009°10'0 0.0
2018-Feb-19 16:30N 38°42' W 009°10'0 0.0
2018-Feb-19 16:00N 38°42' W 009°10'0 0.0
2018-Feb-19 15:30N 38°42' W 009°10'0 0.0
2018-Feb-19 14:59N 38°42' W 009°10'0 0.6
2018-Feb-19 14:30N 38°42' W 009°09'0 0.8
2018-Feb-19 14:00N 38°42' W 009°10'0 0.6
2018-Feb-19 13:30N 38°42' W 009°10'0 0.0
2018-Feb-19 12:58N 38°42' W 009°10'0 0.0
2018-Feb-19 12:30N 38°42' W 009°10'0 0.0
2018-Feb-19 12:00N 38°42' W 009°10'0 0.0
2018-Feb-19 11:30N 38°42' W 009°10'0 0.0
2018-Feb-19 11:00N 38°42' W 009°10'0 0.0
2018-Feb-19 10:28N 38°42' W 009°10'0 0.0
2018-Feb-19 10:00N 38°42' W 009°10'0 0.0
2018-Feb-19 09:30N 38°42' W 009°10'0 0.0
2018-Feb-19 09:00N 38°42' W 009°10'0 0.0
2018-Feb-19 08:30N 38°42' W 009°10'0 0.0
2018-Feb-19 08:00N 38°42' W 009°10'0 0.3
2018-Feb-19 07:30N 38°42' W 009°09'1 1.3
2018-Feb-19 07:00N 38°42' W 009°10'1 2.6
2018-Feb-19 06:30N 38°42' W 009°12'0 0.7
2018-Feb-19 06:00N 38°42' W 009°11'1 3.0
2018-Feb-19 05:30N 38°42' W 009°10'0 0.0
2018-Feb-19 04:59N 38°42' W 009°10'0 0.0
2018-Feb-19 04:30N 38°42' W 009°10'0 0.0
2018-Feb-19 04:00N 38°42' W 009°10'0 0.0
2018-Feb-19 03:30N 38°42' W 009°10'0 0.0
2018-Feb-19 02:58N 38°42' W 009°10'0 0.0
2018-Feb-19 02:30N 38°42' W 009°10'0 0.0
2018-Feb-19 01:58N 38°42' W 009°10'0 0.0
2018-Feb-19 01:30N 38°42' W 009°10'0 0.0
2018-Feb-19 00:59N 38°42' W 009°10'0 0.0
2018-Feb-19 00:29N 38°42' W 009°10'0 0.0
2018-Feb-19 00:00N 38°42' W 009°10'0 0.0
2018-Feb-18 23:30N 38°42' W 009°10'0 0.0
2018-Feb-18 23:00N 38°42' W 009°10'0 0.0
2018-Feb-18 22:30N 38°42' W 009°10'0 0.0
2018-Feb-18 22:00N 38°42' W 009°10'0 0.0
2018-Feb-18 21:29N 38°42' W 009°10'0 0.0
2018-Feb-18 21:00N 38°42' W 009°10'0 0.0
2018-Feb-18 20:30N 38°42' W 009°10'0 0.0
2018-Feb-18 20:00N 38°42' W 009°10'0 0.0
2018-Feb-18 19:29N 38°42' W 009°10'0 0.0
2018-Feb-18 19:00N 38°42' W 009°10'0 0.0
2018-Feb-18 18:30N 38°42' W 009°10'0 0.0
2018-Feb-18 17:59N 38°42' W 009°10'0 0.0
2018-Feb-18 17:30N 38°42' W 009°10'0 0.0
2018-Feb-18 17:00N 38°42' W 009°10'0 0.0
2018-Feb-18 16:30N 38°42' W 009°10'0 0.0
2018-Feb-18 16:00N 38°42' W 009°10'0 0.0
2018-Feb-18 15:28N 38°42' W 009°10'0 0.0
2018-Feb-18 15:00N 38°42' W 009°10'0 0.0
2018-Feb-18 14:30N 38°42' W 009°10'0 0.0
2018-Feb-18 14:00N 38°42' W 009°10'0 0.0
2018-Feb-18 13:30N 38°42' W 009°10'1 2.0
2018-Feb-18 13:00N 38°42' W 009°09'3 6.9
2018-Feb-18 12:30N 38°41' W 009°04'0 0.8
2018-Feb-18 11:59N 38°41' W 009°04'2 3.7
2018-Feb-18 11:30N 38°41' W 009°06'3 5.6
2018-Feb-18 11:00N 38°42' W 009°09'1 1.0
2018-Feb-18 10:30N 38°42' W 009°10'0 0.0
2018-Feb-18 10:00N 38°42' W 009°10'0 0.0
2018-Feb-18 09:30N 38°42' W 009°10'0 0.0
2018-Feb-18 09:00N 38°42' W 009°10'0 0.0
2018-Feb-18 08:30N 38°42' W 009°10'0 0.0
2018-Feb-18 08:00N 38°42' W 009°10'0 0.0
2018-Feb-18 07:30N 38°42' W 009°10'0 0.0
2018-Feb-18 07:00N 38°42' W 009°10'0 0.0
2018-Feb-18 06:30N 38°42' W 009°10'0 0.0
2018-Feb-18 06:00N 38°42' W 009°10'0 0.0
2018-Feb-18 05:30N 38°42' W 009°10'0 0.0
2018-Feb-18 05:00N 38°42' W 009°10'0 0.0
2018-Feb-18 04:30N 38°42' W 009°10'0 0.0
2018-Feb-18 04:00N 38°42' W 009°10'0 0.0
2018-Feb-18 03:30N 38°42' W 009°10'0 0.0
2018-Feb-18 03:00N 38°42' W 009°10'0 0.0
2018-Feb-18 02:30N 38°42' W 009°10'0 0.0
2018-Feb-18 02:00N 38°42' W 009°10'0 0.0
2018-Feb-18 01:30N 38°42' W 009°10'0 0.0
2018-Feb-18 01:00N 38°42' W 009°10'0 0.0
2018-Feb-18 00:30N 38°42' W 009°10'0 0.0
2018-Feb-18 00:00N 38°42' W 009°10'0 0.0
2018-Feb-17 23:29N 38°42' W 009°10'0 0.0
2018-Feb-17 23:00N 38°42' W 009°10'0 0.0
2018-Feb-17 22:30N 38°42' W 009°10'0 0.0
2018-Feb-17 22:00N 38°42' W 009°10'0 0.0
2018-Feb-17 21:30N 38°42' W 009°10'0 0.0
2018-Feb-17 21:00N 38°42' W 009°10'0 0.0
2018-Feb-17 20:29N 38°42' W 009°10'0 0.0
2018-Feb-17 20:00N 38°42' W 009°10'0 0.0
2018-Feb-17 19:30N 38°42' W 009°10'0 0.0
2018-Feb-17 18:59N 38°42' W 009°10'0 0.0
2018-Feb-17 18:30N 38°42' W 009°10'0 0.0
2018-Feb-17 18:00N 38°42' W 009°10'0 0.0
2018-Feb-17 17:30N 38°42' W 009°10'0 0.0
2018-Feb-17 17:00N 38°42' W 009°10'0 0.0
2018-Feb-17 16:30N 38°42' W 009°10'0 0.0
2018-Feb-17 16:00N 38°42' W 009°10'0 0.0
2018-Feb-17 15:30N 38°42' W 009°10'0 0.0
2018-Feb-17 15:00N 38°42' W 009°10'0 0.0
2018-Feb-17 14:30N 38°42' W 009°10'0 0.0
2018-Feb-17 14:00N 38°42' W 009°10'0 0.0
2018-Feb-17 13:30N 38°42' W 009°10'0 0.0
2018-Feb-17 13:00N 38°42' W 009°10'0 0.0
2018-Feb-17 12:29N 38°42' W 009°10'0 0.0
2018-Feb-17 12:00N 38°42' W 009°10'0 0.1
2018-Feb-17 11:30N 38°42' W 009°10'0 0.1
2018-Feb-17 11:00N 38°42' W 009°10'0 0.0
2018-Feb-17 10:30N 38°42' W 009°10'0 0.0
2018-Feb-17 09:59N 38°42' W 009°10'0 0.0
2018-Feb-17 09:30N 38°42' W 009°10'0 0.0
2018-Feb-17 09:00N 38°42' W 009°10'0 0.0
2018-Feb-17 08:30N 38°42' W 009°10'0 0.0
2018-Feb-17 08:00N 38°42' W 009°10'0 0.0
2018-Feb-17 07:30N 38°42' W 009°10'0 0.0
2018-Feb-17 07:00N 38°42' W 009°10'0 0.0
2018-Feb-17 06:29N 38°42' W 009°10'0 0.0
2018-Feb-17 06:00N 38°42' W 009°10'0 0.0
2018-Feb-17 05:30N 38°42' W 009°10'0 0.0
2018-Feb-17 05:00N 38°42' W 009°10'1 1.4
2018-Feb-17 04:30N 38°42' W 009°09'4 8.2
2018-Feb-17 04:00N 38°41' W 009°04'0 0.3
2018-Feb-17 03:30N 38°41' W 009°04'2 4.3
2018-Feb-17 03:00N 38°41' W 009°06'3 5.2
2018-Feb-17 02:30N 38°42' W 009°09'0 0.7
2018-Feb-17 02:00N 38°42' W 009°10'0 0.0
2018-Feb-17 01:30N 38°42' W 009°10'0 0.0
2018-Feb-17 00:59N 38°42' W 009°10'0 0.0
2018-Feb-17 00:30N 38°42' W 009°10'0 0.0
2018-Feb-17 00:00N 38°42' W 009°10'2 3.1
2018-Feb-16 23:30N 38°41' W 009°11'0 0.7
2018-Feb-16 23:00N 38°41' W 009°11'1 2.2
2018-Feb-16 22:30N 38°42' W 009°10'0 0.4
2018-Feb-16 22:00N 38°42' W 009°10'0 0.0
2018-Feb-16 21:29N 38°42' W 009°10'0 0.0
2018-Feb-16 20:58N 38°42' W 009°10'0 0.0
2018-Feb-16 20:30N 38°42' W 009°10'0 0.0
2018-Feb-16 19:59N 38°42' W 009°10'0 0.0
2018-Feb-16 19:30N 38°42' W 009°10'0 0.0
2018-Feb-16 19:00N 38°42' W 009°10'0 0.0
2018-Feb-16 18:22N 38°42' W 009°10'0 0.0
2018-Feb-16 18:00N 38°42' W 009°10'0 0.0
2018-Feb-16 17:30N 38°42' W 009°10'0 0.0
2018-Feb-16 16:59N 38°42' W 009°10'0 0.0
2018-Feb-16 16:30N 38°42' W 009°10'0 0.0
2018-Feb-16 15:59N 38°42' W 009°10'0 0.0
2018-Feb-16 15:30N 38°42' W 009°10'0 0.0
2018-Feb-16 15:00N 38°42' W 009°10'0 0.0
2018-Feb-16 14:30N 38°42' W 009°10'2 3.5
2018-Feb-16 14:00N 38°42' W 009°07'1 1.9
2018-Feb-16 13:30N 38°42' W 009°06'2 4.2
2018-Feb-16 13:00N 38°42' W 009°09'1 1.1
2018-Feb-16 12:30N 38°42' W 009°10'0 0.0
2018-Feb-16 12:00N 38°42' W 009°10'0 0.0
2018-Feb-16 11:30N 38°42' W 009°10'0 0.0
2018-Feb-16 11:00N 38°42' W 009°10'0 0.0
2018-Feb-16 10:30N 38°42' W 009°10'0 0.0
2018-Feb-16 09:59N 38°42' W 009°10'0 0.0
2018-Feb-16 09:30N 38°42' W 009°10'0 0.0
2018-Feb-16 08:59N 38°42' W 009°10'0 0.0
2018-Feb-16 08:28N 38°42' W 009°10'0 0.0
2018-Feb-16 08:00N 38°42' W 009°10'0 0.0
2018-Feb-16 07:30N 38°42' W 009°10'0 0.0
2018-Feb-16 07:00N 38°42' W 009°10'0 0.0
2018-Feb-16 06:30N 38°42' W 009°10'0 0.0
2018-Feb-16 06:00N 38°42' W 009°10'0 0.0
2018-Feb-16 05:30N 38°42' W 009°10'0 0.0
2018-Feb-16 05:00N 38°42' W 009°10'0 0.0
2018-Feb-16 04:30N 38°42' W 009°10'0 0.0
2018-Feb-16 04:00N 38°42' W 009°10'0 0.0
2018-Feb-16 03:30N 38°42' W 009°10'0 0.0
2018-Feb-16 03:00N 38°42' W 009°10'0 0.0
2018-Feb-16 02:29N 38°42' W 009°10'0 0.0
2018-Feb-16 02:00N 38°42' W 009°10'0 0.0
2018-Feb-16 01:30N 38°42' W 009°10'0 0.0
2018-Feb-16 01:00N 38°42' W 009°10'0 0.0
2018-Feb-16 00:30N 38°42' W 009°10'0 0.0
2018-Feb-16 00:00N 38°42' W 009°10'0 0.0
2018-Feb-15 23:30N 38°42' W 009°10'0 0.0
2018-Feb-15 23:00N 38°42' W 009°10'0 0.0
2018-Feb-15 22:30N 38°42' W 009°10'0 0.0
2018-Feb-15 21:57N 38°42' W 009°10'0 0.0
2018-Feb-15 21:30N 38°42' W 009°10'0 0.0
2018-Feb-15 21:00N 38°42' W 009°10'0 0.4
2018-Feb-15 20:30N 38°42' W 009°09'1 1.3
2018-Feb-15 19:59N 38°42' W 009°10'0 1.0
2018-Feb-15 19:30N 38°42' W 009°10'0 0.0
2018-Feb-15 19:00N 38°42' W 009°10'0 0.0
2018-Feb-15 18:30N 38°42' W 009°10'0 0.0
2018-Feb-15 18:00N 38°42' W 009°10'0 0.0
2018-Feb-15 17:29N 38°42' W 009°10'0 0.0
2018-Feb-15 17:00N 38°42' W 009°10'0 0.0
2018-Feb-15 16:30N 38°42' W 009°10'0 0.0
2018-Feb-15 16:00N 38°42' W 009°10'0 0.0
2018-Feb-15 15:28N 38°42' W 009°10'0 0.0
2018-Feb-15 15:00N 38°42' W 009°10'0 0.0
2018-Feb-15 14:29N 38°42' W 009°10'0 0.0
2018-Feb-15 14:00N 38°42' W 009°10'0 0.0
2018-Feb-15 13:30N 38°42' W 009°10'2 4.5
2018-Feb-15 13:00N 38°41' W 009°07'3 5.6
2018-Feb-15 12:30N 38°41' W 009°04'3 5.2
2018-Feb-15 12:00N 38°41' W 009°07'2 4.9
2018-Feb-15 11:30N 38°42' W 009°10'0 0.0
2018-Feb-15 11:00N 38°42' W 009°10'0 0.0
2018-Feb-15 10:30N 38°42' W 009°10'0 0.0
2018-Feb-15 10:00N 38°42' W 009°10'0 0.0
2018-Feb-15 09:28N 38°42' W 009°10'0 0.0
2018-Feb-15 08:58N 38°42' W 009°10'0 0.0
2018-Feb-15 08:25N 38°42' W 009°10'0 0.0
2018-Feb-15 08:00N 38°42' W 009°10'0 0.0
2018-Feb-15 07:30N 38°42' W 009°10'0 0.0
2018-Feb-15 06:59N 38°42' W 009°10'0 0.0
2018-Feb-15 06:30N 38°42' W 009°10'0 0.0
2018-Feb-15 06:00N 38°42' W 009°10'0 0.0
2018-Feb-15 05:30N 38°42' W 009°10'0 0.0
2018-Feb-15 05:00N 38°42' W 009°10'0 0.0
2018-Feb-15 04:30N 38°42' W 009°10'0 0.0
2018-Feb-15 03:59N 38°42' W 009°10'0 0.0
2018-Feb-15 03:29N 38°42' W 009°10'0 0.0
2018-Feb-15 02:58N 38°42' W 009°10'0 0.0
2018-Feb-15 02:30N 38°42' W 009°10'0 0.0
2018-Feb-15 02:00N 38°42' W 009°10'0 0.0
2018-Feb-15 01:30N 38°42' W 009°10'0 0.0
2018-Feb-15 00:58N 38°42' W 009°10'0 0.0
2018-Feb-15 00:30N 38°42' W 009°10'0 0.0
2018-Feb-15 00:00N 38°42' W 009°10'  
Track history (hours):
 
Tides and Currents Weather Stations Pressure Air Temp Water Temp Dewpoint Dewpoint Depression Visibility Wind Speed Wind Dir Waves Ship Positions

Svitzer Sines

Last reported at 2018-Feb-25 00:00 UTC. Time now 2018-Feb-25 00:22 UTC.
Position N 37°53' W 009°18'.

Length 28 m; draft 4.8 m.

Type: Other ship. MMSI: 263601890.

Date/timePositionNaut miles runAvg speedWind from/ knotsBaromVisibWave heightAir tempDewpointWater temp
2018-Feb-25 00:00N 37°53' W 009°18'510.8
2018-Feb-24 23:30N 37°59' W 009°18'510.8
2018-Feb-24 23:00N 38°04' W 009°19'510.6
2018-Feb-24 22:30N 38°09' W 009°20'510.8
2018-Feb-24 22:00N 38°15' W 009°20'510.9
2018-Feb-24 21:30N 38°20' W 009°21'510.7
2018-Feb-24 21:00N 38°25' W 009°22'510.7
2018-Feb-24 20:30N 38°31' W 009°23'510.4
2018-Feb-24 20:00N 38°36' W 009°23'5 9.4
2018-Feb-24 19:30N 38°40' W 009°19'4 8.0
2018-Feb-24 19:00N 38°41' W 009°14'4 8.0
2018-Feb-24 18:30N 38°42' W 009°10'0 0.2
2018-Feb-24 18:00N 38°42' W 009°10'0 0.0
2018-Feb-24 17:30N 38°42' W 009°10'0 0.0
2018-Feb-24 17:00N 38°42' W 009°10'0 0.0
2018-Feb-24 16:30N 38°42' W 009°10'0 0.0
2018-Feb-24 16:00N 38°42' W 009°10'0 0.0
2018-Feb-24 15:30N 38°42' W 009°10'0 0.0
2018-Feb-24 15:00N 38°42' W 009°10'0 0.0
2018-Feb-24 14:30N 38°42' W 009°10'0 0.0
2018-Feb-24 14:00N 38°42' W 009°10'0 0.0
2018-Feb-24 13:30N 38°42' W 009°10'0 0.0
2018-Feb-24 12:58N 38°42' W 009°10'0 0.0
2018-Feb-24 12:30N 38°42' W 009°10'0 0.0
2018-Feb-24 12:00N 38°42' W 009°10'0 0.0
2018-Feb-24 11:30N 38°42' W 009°10'0 0.0
2018-Feb-24 11:00N 38°42' W 009°10'0 0.0
2018-Feb-24 10:30N 38°42' W 009°10'0 0.0
2018-Feb-24 09:59N 38°42' W 009°10'0 0.0
2018-Feb-24 09:30N 38°42' W 009°10'0 0.0
2018-Feb-24 08:59N 38°42' W 009°10'0 0.0
2018-Feb-24 08:30N 38°42' W 009°10'0 0.0
2018-Feb-24 08:00N 38°42' W 009°10'0 0.0
2018-Feb-24 07:30N 38°42' W 009°10'0 0.0
2018-Feb-24 07:00N 38°42' W 009°10'0 0.0
2018-Feb-24 06:30N 38°42' W 009°10'0 0.0
2018-Feb-24 06:00N 38°42' W 009°10'0 0.0
2018-Feb-24 05:30N 38°42' W 009°10'0 0.0
2018-Feb-24 05:00N 38°42' W 009°10'0 0.0
2018-Feb-24 04:30N 38°42' W 009°10'0 0.0
2018-Feb-24 04:00N 38°42' W 009°10'0 0.0
2018-Feb-24 03:26N 38°42' W 009°10'0 0.0
2018-Feb-24 02:59N 38°42' W 009°10'0 0.0
2018-Feb-24 02:30N 38°42' W 009°10'0 0.0
2018-Feb-24 02:00N 38°42' W 009°10'0 0.0
2018-Feb-24 01:30N 38°42' W 009°10'0 0.0
2018-Feb-24 01:00N 38°42' W 009°10'0 0.0
2018-Feb-24 00:30N 38°42' W 009°10'0 0.0
2018-Feb-23 23:59N 38°42' W 009°10'0 0.0
2018-Feb-23 23:30N 38°42' W 009°10'0 0.0
2018-Feb-23 23:00N 38°42' W 009°10'0 0.0
2018-Feb-23 22:30N 38°42' W 009°10'0 0.0
2018-Feb-23 22:00N 38°42' W 009°10'0 0.8
2018-Feb-23 21:30N 38°42' W 009°09'3 5.9
2018-Feb-23 21:00N 38°44' W 009°06'1 1.8
2018-Feb-23 20:30N 38°43' W 009°06'1 2.1
2018-Feb-23 20:00N 38°42' W 009°07'1 1.3
2018-Feb-23 19:30N 38°42' W 009°07'0 0.0
2018-Feb-23 19:00N 38°42' W 009°07'0 0.0
2018-Feb-23 18:30N 38°42' W 009°07'0 0.0
2018-Feb-23 18:00N 38°42' W 009°08'0 0.0
2018-Feb-23 17:30N 38°42' W 009°08'1 1.8
2018-Feb-23 17:00N 38°42' W 009°09'1 1.7
2018-Feb-23 16:28N 38°42' W 009°10'0 0.0
2018-Feb-23 15:58N 38°42' W 009°10'0 0.0
2018-Feb-23 15:30N 38°42' W 009°10'2 3.1
2018-Feb-23 14:59N 38°41' W 009°08'0 0.1
2018-Feb-23 14:28N 38°41' W 009°08'0 0.1
2018-Feb-23 14:00N 38°42' W 009°08'0 0.0
2018-Feb-23 13:30N 38°42' W 009°08'0 0.0
2018-Feb-23 13:00N 38°42' W 009°08'0 0.0
2018-Feb-23 12:30N 38°42' W 009°08'2 3.1
2018-Feb-23 12:00N 38°42' W 009°10'0 0.0
2018-Feb-23 11:30N 38°42' W 009°10'0 0.0
2018-Feb-23 11:00N 38°42' W 009°10'0 0.0
2018-Feb-23 10:30N 38°42' W 009°10'0 0.0
2018-Feb-23 10:00N 38°42' W 009°10'0 0.0
2018-Feb-23 09:30N 38°42' W 009°10'0 0.0
2018-Feb-23 09:00N 38°42' W 009°10'0 0.0
2018-Feb-23 08:30N 38°42' W 009°10'0 0.0
2018-Feb-23 08:00N 38°42' W 009°10'0 0.0
2018-Feb-23 07:30N 38°42' W 009°10'0 0.0
2018-Feb-23 07:00N 38°42' W 009°10'0 0.0
2018-Feb-23 06:28N 38°42' W 009°10'0 0.0
2018-Feb-23 06:00N 38°42' W 009°10'0 0.0
2018-Feb-23 05:30N 38°42' W 009°10'0 0.0
2018-Feb-23 05:00N 38°42' W 009°10'0 0.0
2018-Feb-23 04:30N 38°42' W 009°10'0 0.0
2018-Feb-23 04:00N 38°42' W 009°10'0 0.0
2018-Feb-23 03:29N 38°42' W 009°10'0 0.0
2018-Feb-23 03:00N 38°42' W 009°10'0 0.0
2018-Feb-23 02:30N 38°42' W 009°10'0 0.0
2018-Feb-23 02:00N 38°42' W 009°10'0 0.0
2018-Feb-23 01:29N 38°42' W 009°10'0 0.0
2018-Feb-23 01:00N 38°42' W 009°10'0 0.0
2018-Feb-23 00:30N 38°42' W 009°10'0 0.0
2018-Feb-23 00:00N 38°42' W 009°10'0 0.0
2018-Feb-22 23:30N 38°42' W 009°10'2 3.1
2018-Feb-22 23:00N 38°42' W 009°12'2 4.4
2018-Feb-22 22:30N 38°41' W 009°14'0 0.2
2018-Feb-22 22:00N 38°41' W 009°14'3 6.0
2018-Feb-22 21:30N 38°42' W 009°10'1 1.6
2018-Feb-22 21:00N 38°42' W 009°10'0 0.0
2018-Feb-22 20:30N 38°42' W 009°10'0 0.0
2018-Feb-22 19:59N 38°42' W 009°10'0 0.0
2018-Feb-22 19:30N 38°42' W 009°10'0 0.0
2018-Feb-22 19:00N 38°42' W 009°10'0 0.0
2018-Feb-22 18:30N 38°42' W 009°10'0 0.0
2018-Feb-22 18:00N 38°42' W 009°10'0 0.0
2018-Feb-22 17:30N 38°42' W 009°10'0 0.0
2018-Feb-22 16:56N 38°42' W 009°10'0 0.0
2018-Feb-22 16:30N 38°42' W 009°10'0 0.0
2018-Feb-22 15:56N 38°42' W 009°10'0 0.0
2018-Feb-22 15:30N 38°42' W 009°10'0 0.0
2018-Feb-22 14:59N 38°42' W 009°10'0 0.0
2018-Feb-22 14:29N 38°42' W 009°10'0 0.0
2018-Feb-22 14:00N 38°42' W 009°10'0 0.0
2018-Feb-22 13:30N 38°42' W 009°10'0 0.0
2018-Feb-22 12:59N 38°42' W 009°10'0 0.0
2018-Feb-22 12:30N 38°42' W 009°10'0 0.0
2018-Feb-22 12:00N 38°42' W 009°10'0 0.0
2018-Feb-22 11:29N 38°42' W 009°10'0 0.0
2018-Feb-22 11:00N 38°42' W 009°10'0 0.0
2018-Feb-22 10:30N 38°42' W 009°10'0 0.0
2018-Feb-22 10:00N 38°42' W 009°10'0 0.0
2018-Feb-22 09:30N 38°42' W 009°10'0 0.0
2018-Feb-22 09:00N 38°42' W 009°10'0 0.0
2018-Feb-22 08:30N 38°42' W 009°10'1 2.2
2018-Feb-22 08:00N 38°42' W 009°08'2 3.9
2018-Feb-22 07:30N 38°44' W 009°06'2 3.2
2018-Feb-22 07:00N 38°42' W 009°08'2 3.2
2018-Feb-22 06:30N 38°42' W 009°10'2 3.6
2018-Feb-22 05:59N 38°41' W 009°12'2 4.4
2018-Feb-22 05:30N 38°42' W 009°10'0 0.2
2018-Feb-22 05:00N 38°42' W 009°10'0 0.0
2018-Feb-22 04:30N 38°42' W 009°10'0 0.0
2018-Feb-22 04:00N 38°42' W 009°10'0 0.0
2018-Feb-22 03:30N 38°42' W 009°10'0 0.0
2018-Feb-22 03:00N 38°42' W 009°10'0 0.0
2018-Feb-22 02:30N 38°42' W 009°10'0 0.0
2018-Feb-22 01:59N 38°42' W 009°10'0 0.0
2018-Feb-22 01:29N 38°42' W 009°10'0 0.0
2018-Feb-22 01:00N 38°42' W 009°10'0 0.0
2018-Feb-22 00:30N 38°42' W 009°10'0 0.0
2018-Feb-22 00:00N 38°42' W 009°10'0 0.0
2018-Feb-21 23:30N 38°42' W 009°10'0 0.0
2018-Feb-21 23:00N 38°42' W 009°10'0 0.0
2018-Feb-21 22:30N 38°42' W 009°10'0 0.0
2018-Feb-21 22:00N 38°42' W 009°10'0 0.0
2018-Feb-21 21:30N 38°42' W 009°10'0 0.0
2018-Feb-21 20:59N 38°42' W 009°10'0 0.0
2018-Feb-21 20:30N 38°42' W 009°10'0 0.0
2018-Feb-21 19:59N 38°42' W 009°10'0 0.0
2018-Feb-21 19:30N 38°42' W 009°10'0 0.0
2018-Feb-21 19:00N 38°42' W 009°10'1 1.3
2018-Feb-21 18:30N 38°42' W 009°10'0 0.7
2018-Feb-21 18:00N 38°42' W 009°10'0 0.6
2018-Feb-21 17:30N 38°42' W 009°10'0 0.0
2018-Feb-21 17:00N 38°42' W 009°10'0 0.0
2018-Feb-21 16:30N 38°42' W 009°10'0 0.0
2018-Feb-21 16:00N 38°42' W 009°10'0 0.0
2018-Feb-21 15:27N 38°42' W 009°10'0 0.0
2018-Feb-21 14:59N 38°42' W 009°10'0 0.7
2018-Feb-21 14:30N 38°42' W 009°10'2 4.0
2018-Feb-21 14:00N 38°41' W 009°12'0 0.9
2018-Feb-21 13:30N 38°41' W 009°12'0 0.0
2018-Feb-21 13:00N 38°41' W 009°12'0 0.0
2018-Feb-21 12:29N 38°41' W 009°12'0 0.5
2018-Feb-21 12:00N 38°41' W 009°12'1 1.2
2018-Feb-21 11:30N 38°41' W 009°11'1 2.6
2018-Feb-21 11:00N 38°41' W 009°13'3 5.3
2018-Feb-21 10:30N 38°42' W 009°10'0 0.0
2018-Feb-21 10:00N 38°42' W 009°10'0 0.0
2018-Feb-21 09:30N 38°42' W 009°10'0 0.0
2018-Feb-21 08:58N 38°42' W 009°10'0 0.0
2018-Feb-21 08:30N 38°42' W 009°10'0 0.0
2018-Feb-21 08:00N 38°42' W 009°10'0 0.0
2018-Feb-21 07:29N 38°42' W 009°10'0 0.0
2018-Feb-21 07:00N 38°42' W 009°10'0 0.0
2018-Feb-21 06:30N 38°42' W 009°10'0 0.0
2018-Feb-21 06:00N 38°42' W 009°10'0 0.7
2018-Feb-21 05:30N 38°42' W 009°09'3 6.6
2018-Feb-21 05:00N 38°44' W 009°06'2 3.9
2018-Feb-21 04:30N 38°43' W 009°07'4 8.1
2018-Feb-21 04:00N 38°41' W 009°12'2 4.5
2018-Feb-21 03:29N 38°42' W 009°10'0 0.0
2018-Feb-21 03:00N 38°42' W 009°10'0 0.0
2018-Feb-21 02:30N 38°42' W 009°10'0 0.0
2018-Feb-21 02:00N 38°42' W 009°10'0 0.0
2018-Feb-21 01:30N 38°42' W 009°10'0 0.0
2018-Feb-21 00:59N 38°42' W 009°10'0 0.0
2018-Feb-21 00:30N 38°42' W 009°10'0 0.3
2018-Feb-21 00:00N 38°42' W 009°10'0 0.0
2018-Feb-20 23:30N 38°42' W 009°10'0 0.3
2018-Feb-20 23:00N 38°42' W 009°10'0 0.0
2018-Feb-20 22:30N 38°42' W 009°10'0 0.0
2018-Feb-20 22:00N 38°42' W 009°10'0 0.0
2018-Feb-20 21:30N 38°42' W 009°10'0 0.0
2018-Feb-20 21:00N 38°42' W 009°10'0 0.0
2018-Feb-20 20:30N 38°42' W 009°10'0 0.0
2018-Feb-20 20:00N 38°42' W 009°10'0 0.0
2018-Feb-20 19:29N 38°42' W 009°10'0 0.0
2018-Feb-20 18:59N 38°42' W 009°10'0 0.0
2018-Feb-20 18:30N 38°42' W 009°10'0 0.0
2018-Feb-20 18:00N 38°42' W 009°10'0 0.0
2018-Feb-20 17:30N 38°42' W 009°10'0 0.0
2018-Feb-20 17:00N 38°42' W 009°10'0 0.9
2018-Feb-20 16:30N 38°42' W 009°10'1 1.2
2018-Feb-20 16:00N 38°42' W 009°09'1 1.1
2018-Feb-20 15:30N 38°42' W 009°10'0 0.0
2018-Feb-20 15:00N 38°42' W 009°10'0 0.0
2018-Feb-20 14:30N 38°42' W 009°10'0 0.0
2018-Feb-20 14:00N 38°42' W 009°10'0 0.0
2018-Feb-20 13:30N 38°42' W 009°10'0 0.0
2018-Feb-20 13:00N 38°42' W 009°10'0 0.0
2018-Feb-20 12:30N 38°42' W 009°10'0 0.1
2018-Feb-20 11:17N 38°42' W 009°10'0 0.5
2018-Feb-20 10:59N 38°42' W 009°10'0 0.1
2018-Feb-20 10:30N 38°42' W 009°10'0 0.1
2018-Feb-20 09:32N 38°42' W 009°10'0 0.0
2018-Feb-20 09:16N 38°42' W 009°10'0 0.0
2018-Feb-20 08:57N 38°42' W 009°10'0 1.0
2018-Feb-20 08:29N 38°42' W 009°10'0 0.3
2018-Feb-20 08:00N 38°42' W 009°10'2 2.2
2018-Feb-20 07:19N 38°41' W 009°12'1 3.9
2018-Feb-20 07:00N 38°42' W 009°10'1 1.2
2018-Feb-20 06:30N 38°42' W 009°10'0 0.0
2018-Feb-20 06:00N 38°42' W 009°10'0 0.0
2018-Feb-20 05:30N 38°42' W 009°10'0 0.0
2018-Feb-20 04:59N 38°42' W 009°10'0 0.0
2018-Feb-20 04:30N 38°42' W 009°10'0 0.0
2018-Feb-20 03:59N 38°42' W 009°10'0 0.0
2018-Feb-20 03:30N 38°42' W 009°10'0 0.0
2018-Feb-20 03:00N 38°42' W 009°10'0 0.0
2018-Feb-20 02:30N 38°42' W 009°10'0 0.0
2018-Feb-20 02:00N 38°42' W 009°10'0 0.0
2018-Feb-20 01:29N 38°42' W 009°10'0 0.0
2018-Feb-20 00:20N 38°42' W 009°10'0 0.0
2018-Feb-19 21:54N 38°42' W 009°10'0 0.0
2018-Feb-19 21:30N 38°42' W 009°10'0 0.0
2018-Feb-19 21:00N 38°42' W 009°10'0 0.0
2018-Feb-19 20:30N 38°42' W 009°10'0 0.0
2018-Feb-19 20:00N 38°42' W 009°10'0 0.0
2018-Feb-19 19:30N 38°42' W 009°10'0 0.0
2018-Feb-19 19:00N 38°42' W 009°10'0 0.0
2018-Feb-19 18:30N 38°42' W 009°10'0 0.0
2018-Feb-19 18:00N 38°42' W 009°10'0 0.0
2018-Feb-19 17:30N 38°42' W 009°10'0 0.0
2018-Feb-19 16:57N 38°42' W 009°10'0 0.0
2018-Feb-19 16:30N 38°42' W 009°10'0 0.0
2018-Feb-19 16:00N 38°42' W 009°10'0 0.0
2018-Feb-19 15:30N 38°42' W 009°10'0 0.0
2018-Feb-19 14:59N 38°42' W 009°10'0 0.6
2018-Feb-19 14:30N 38°42' W 009°09'0 0.8
2018-Feb-19 14:00N 38°42' W 009°10'0 0.6
2018-Feb-19 13:30N 38°42' W 009°10'0 0.0
2018-Feb-19 12:58N 38°42' W 009°10'0 0.0
2018-Feb-19 12:30N 38°42' W 009°10'0 0.0
2018-Feb-19 12:00N 38°42' W 009°10'0 0.0
2018-Feb-19 11:30N 38°42' W 009°10'0 0.0
2018-Feb-19 11:00N 38°42' W 009°10'0 0.0
2018-Feb-19 10:28N 38°42' W 009°10'0 0.0
2018-Feb-19 10:00N 38°42' W 009°10'0 0.0
2018-Feb-19 09:30N 38°42' W 009°10'0 0.0
2018-Feb-19 09:00N 38°42' W 009°10'0 0.0
2018-Feb-19 08:30N 38°42' W 009°10'0 0.0
2018-Feb-19 08:00N 38°42' W 009°10'0 0.3
2018-Feb-19 07:30N 38°42' W 009°09'1 1.3
2018-Feb-19 07:00N 38°42' W 009°10'1 2.6
2018-Feb-19 06:30N 38°42' W 009°12'0 0.7
2018-Feb-19 06:00N 38°42' W 009°11'1 3.0
2018-Feb-19 05:30N 38°42' W 009°10'0 0.0
2018-Feb-19 04:59N 38°42' W 009°10'0 0.0
2018-Feb-19 04:30N 38°42' W 009°10'0 0.0
2018-Feb-19 04:00N 38°42' W 009°10'0 0.0
2018-Feb-19 03:30N 38°42' W 009°10'0 0.0
2018-Feb-19 02:58N 38°42' W 009°10'0 0.0
2018-Feb-19 02:30N 38°42' W 009°10'0 0.0
2018-Feb-19 01:58N 38°42' W 009°10'0 0.0
2018-Feb-19 01:30N 38°42' W 009°10'0 0.0
2018-Feb-19 00:59N 38°42' W 009°10'0 0.0
2018-Feb-19 00:29N 38°42' W 009°10'0 0.0
2018-Feb-19 00:00N 38°42' W 009°10'0 0.0
2018-Feb-18 23:30N 38°42' W 009°10'0 0.0
2018-Feb-18 23:00N 38°42' W 009°10'0 0.0
2018-Feb-18 22:30N 38°42' W 009°10'0 0.0
2018-Feb-18 22:00N 38°42' W 009°10'0 0.0
2018-Feb-18 21:29N 38°42' W 009°10'0 0.0
2018-Feb-18 21:00N 38°42' W 009°10'0 0.0
2018-Feb-18 20:30N 38°42' W 009°10'0 0.0
2018-Feb-18 20:00N 38°42' W 009°10'0 0.0
2018-Feb-18 19:29N 38°42' W 009°10'0 0.0
2018-Feb-18 19:00N 38°42' W 009°10'0 0.0
2018-Feb-18 18:30N 38°42' W 009°10'0 0.0
2018-Feb-18 17:59N 38°42' W 009°10'0 0.0
2018-Feb-18 17:30N 38°42' W 009°10'0 0.0
2018-Feb-18 17:00N 38°42' W 009°10'0 0.0
2018-Feb-18 16:30N 38°42' W 009°10'0 0.0
2018-Feb-18 16:00N 38°42' W 009°10'0 0.0
2018-Feb-18 15:28N 38°42' W 009°10'0 0.0
2018-Feb-18 15:00N 38°42' W 009°10'0 0.0
2018-Feb-18 14:30N 38°42' W 009°10'0 0.0
2018-Feb-18 14:00N 38°42' W 009°10'0 0.0
2018-Feb-18 13:30N 38°42' W 009°10'1 2.0
2018-Feb-18 13:00N 38°42' W 009°09'3 6.9
2018-Feb-18 12:30N 38°41' W 009°04'0 0.8
2018-Feb-18 11:59N 38°41' W 009°04'2 3.7
2018-Feb-18 11:30N 38°41' W 009°06'3 5.6
2018-Feb-18 11:00N 38°42' W 009°09'1 1.0
2018-Feb-18 10:30N 38°42' W 009°10'0 0.0
2018-Feb-18 10:00N 38°42' W 009°10'0 0.0
2018-Feb-18 09:30N 38°42' W 009°10'0 0.0
2018-Feb-18 09:00N 38°42' W 009°10'0 0.0
2018-Feb-18 08:30N 38°42' W 009°10'0 0.0
2018-Feb-18 08:00N 38°42' W 009°10'0 0.0
2018-Feb-18 07:30N 38°42' W 009°10'0 0.0
2018-Feb-18 07:00N 38°42' W 009°10'0 0.0
2018-Feb-18 06:30N 38°42' W 009°10'0 0.0
2018-Feb-18 06:00N 38°42' W 009°10'0 0.0
2018-Feb-18 05:30N 38°42' W 009°10'0 0.0
2018-Feb-18 05:00N 38°42' W 009°10'0 0.0
2018-Feb-18 04:30N 38°42' W 009°10'0 0.0
2018-Feb-18 04:00N 38°42' W 009°10'0 0.0
2018-Feb-18 03:30N 38°42' W 009°10'0 0.0
2018-Feb-18 03:00N 38°42' W 009°10'0 0.0
2018-Feb-18 02:30N 38°42' W 009°10'0 0.0
2018-Feb-18 02:00N 38°42' W 009°10'0 0.0
2018-Feb-18 01:30N 38°42' W 009°10'0 0.0
2018-Feb-18 01:00N 38°42' W 009°10'0 0.0
2018-Feb-18 00:30N 38°42' W 009°10'0 0.0
2018-Feb-18 00:00N 38°42' W 009°10'0 0.0
2018-Feb-17 23:29N 38°42' W 009°10'0 0.0
2018-Feb-17 23:00N 38°42' W 009°10'0 0.0
2018-Feb-17 22:30N 38°42' W 009°10'0 0.0
2018-Feb-17 22:00N 38°42' W 009°10'0 0.0
2018-Feb-17 21:30N 38°42' W 009°10'0 0.0
2018-Feb-17 21:00N 38°42' W 009°10'0 0.0
2018-Feb-17 20:29N 38°42' W 009°10'0 0.0
2018-Feb-17 20:00N 38°42' W 009°10'0 0.0
2018-Feb-17 19:30N 38°42' W 009°10'0 0.0
2018-Feb-17 18:59N 38°42' W 009°10'0 0.0
2018-Feb-17 18:30N 38°42' W 009°10'0 0.0
2018-Feb-17 18:00N 38°42' W 009°10'0 0.0
2018-Feb-17 17:30N 38°42' W 009°10'0 0.0
2018-Feb-17 17:00N 38°42' W 009°10'0 0.0
2018-Feb-17 16:30N 38°42' W 009°10'0 0.0
2018-Feb-17 16:00N 38°42' W 009°10'0 0.0
2018-Feb-17 15:30N 38°42' W 009°10'0 0.0
2018-Feb-17 15:00N 38°42' W 009°10'0 0.0
2018-Feb-17 14:30N 38°42' W 009°10'0 0.0
2018-Feb-17 14:00N 38°42' W 009°10'0 0.0
2018-Feb-17 13:30N 38°42' W 009°10'0 0.0
2018-Feb-17 13:00N 38°42' W 009°10'0 0.0
2018-Feb-17 12:29N 38°42' W 009°10'0 0.0
2018-Feb-17 12:00N 38°42' W 009°10'0 0.1
2018-Feb-17 11:30N 38°42' W 009°10'0 0.1
2018-Feb-17 11:00N 38°42' W 009°10'0 0.0
2018-Feb-17 10:30N 38°42' W 009°10'0 0.0
2018-Feb-17 09:59N 38°42' W 009°10'0 0.0
2018-Feb-17 09:30N 38°42' W 009°10'0 0.0
2018-Feb-17 09:00N 38°42' W 009°10'0 0.0
2018-Feb-17 08:30N 38°42' W 009°10'0 0.0
2018-Feb-17 08:00N 38°42' W 009°10'0 0.0
2018-Feb-17 07:30N 38°42' W 009°10'0 0.0
2018-Feb-17 07:00N 38°42' W 009°10'0 0.0
2018-Feb-17 06:29N 38°42' W 009°10'0 0.0
2018-Feb-17 06:00N 38°42' W 009°10'0 0.0
2018-Feb-17 05:30N 38°42' W 009°10'0 0.0
2018-Feb-17 05:00N 38°42' W 009°10'1 1.4
2018-Feb-17 04:30N 38°42' W 009°09'4 8.2
2018-Feb-17 04:00N 38°41' W 009°04'0 0.3
2018-Feb-17 03:30N 38°41' W 009°04'2 4.3
2018-Feb-17 03:00N 38°41' W 009°06'3 5.2
2018-Feb-17 02:30N 38°42' W 009°09'0 0.7
2018-Feb-17 02:00N 38°42' W 009°10'0 0.0
2018-Feb-17 01:30N 38°42' W 009°10'0 0.0
2018-Feb-17 00:59N 38°42' W 009°10'0 0.0
2018-Feb-17 00:30N 38°42' W 009°10'0 0.0
2018-Feb-17 00:00N 38°42' W 009°10'2 3.1
2018-Feb-16 23:30N 38°41' W 009°11'0 0.7
2018-Feb-16 23:00N 38°41' W 009°11'1 2.2
2018-Feb-16 22:30N 38°42' W 009°10'0 0.4
2018-Feb-16 22:00N 38°42' W 009°10'0 0.0
2018-Feb-16 21:29N 38°42' W 009°10'0 0.0
2018-Feb-16 20:58N 38°42' W 009°10'0 0.0
2018-Feb-16 20:30N 38°42' W 009°10'0 0.0
2018-Feb-16 19:59N 38°42' W 009°10'0 0.0
2018-Feb-16 19:30N 38°42' W 009°10'0 0.0
2018-Feb-16 19:00N 38°42' W 009°10'0 0.0
2018-Feb-16 18:22N 38°42' W 009°10'0 0.0
2018-Feb-16 18:00N 38°42' W 009°10'0 0.0
2018-Feb-16 17:30N 38°42' W 009°10'0 0.0
2018-Feb-16 16:59N 38°42' W 009°10'0 0.0
2018-Feb-16 16:30N 38°42' W 009°10'0 0.0
2018-Feb-16 15:59N 38°42' W 009°10'0 0.0
2018-Feb-16 15:30N 38°42' W 009°10'0 0.0
2018-Feb-16 15:00N 38°42' W 009°10'0 0.0
2018-Feb-16 14:30N 38°42' W 009°10'2 3.5
2018-Feb-16 14:00N 38°42' W 009°07'1 1.9
2018-Feb-16 13:30N 38°42' W 009°06'2 4.2
2018-Feb-16 13:00N 38°42' W 009°09'1 1.1
2018-Feb-16 12:30N 38°42' W 009°10'0 0.0
2018-Feb-16 12:00N 38°42' W 009°10'0 0.0
2018-Feb-16 11:30N 38°42' W 009°10'0 0.0
2018-Feb-16 11:00N 38°42' W 009°10'0 0.0
2018-Feb-16 10:30N 38°42' W 009°10'0 0.0
2018-Feb-16 09:59N 38°42' W 009°10'0 0.0
2018-Feb-16 09:30N 38°42' W 009°10'0 0.0
2018-Feb-16 08:59N 38°42' W 009°10'0 0.0
2018-Feb-16 08:28N 38°42' W 009°10'0 0.0
2018-Feb-16 08:00N 38°42' W 009°10'0 0.0
2018-Feb-16 07:30N 38°42' W 009°10'0 0.0
2018-Feb-16 07:00N 38°42' W 009°10'0 0.0
2018-Feb-16 06:30N 38°42' W 009°10'0 0.0
2018-Feb-16 06:00N 38°42' W 009°10'0 0.0
2018-Feb-16 05:30N 38°42' W 009°10'0 0.0
2018-Feb-16 05:00N 38°42' W 009°10'0 0.0
2018-Feb-16 04:30N 38°42' W 009°10'0 0.0
2018-Feb-16 04:00N 38°42' W 009°10'0 0.0
2018-Feb-16 03:30N 38°42' W 009°10'0 0.0
2018-Feb-16 03:00N 38°42' W 009°10'0 0.0
2018-Feb-16 02:29N 38°42' W 009°10'0 0.0
2018-Feb-16 02:00N 38°42' W 009°10'0 0.0
2018-Feb-16 01:30N 38°42' W 009°10'0 0.0
2018-Feb-16 01:00N 38°42' W 009°10'0 0.0
2018-Feb-16 00:30N 38°42' W 009°10'0 0.0
2018-Feb-16 00:00N 38°42' W 009°10'0 0.0
2018-Feb-15 23:30N 38°42' W 009°10'0 0.0
2018-Feb-15 23:00N 38°42' W 009°10'0 0.0
2018-Feb-15 22:30N 38°42' W 009°10'0 0.0
2018-Feb-15 21:57N 38°42' W 009°10'0 0.0
2018-Feb-15 21:30N 38°42' W 009°10'0 0.0
2018-Feb-15 21:00N 38°42' W 009°10'0 0.4
2018-Feb-15 20:30N 38°42' W 009°09'1 1.3
2018-Feb-15 19:59N 38°42' W 009°10'0 1.0
2018-Feb-15 19:30N 38°42' W 009°10'0 0.0
2018-Feb-15 19:00N 38°42' W 009°10'0 0.0
2018-Feb-15 18:30N 38°42' W 009°10'0 0.0
2018-Feb-15 18:00N 38°42' W 009°10'0 0.0
2018-Feb-15 17:29N 38°42' W 009°10'0 0.0
2018-Feb-15 17:00N 38°42' W 009°10'0 0.0
2018-Feb-15 16:30N 38°42' W 009°10'0 0.0
2018-Feb-15 16:00N 38°42' W 009°10'0 0.0
2018-Feb-15 15:28N 38°42' W 009°10'0 0.0
2018-Feb-15 15:00N 38°42' W 009°10'0 0.0
2018-Feb-15 14:29N 38°42' W 009°10'0 0.0
2018-Feb-15 14:00N 38°42' W 009°10'0 0.0
2018-Feb-15 13:30N 38°42' W 009°10'2 4.5
2018-Feb-15 13:00N 38°41' W 009°07'3 5.6
2018-Feb-15 12:30N 38°41' W 009°04'3 5.2
2018-Feb-15 12:00N 38°41' W 009°07'2 4.9
2018-Feb-15 11:30N 38°42' W 009°10'0 0.0
2018-Feb-15 11:00N 38°42' W 009°10'0 0.0
2018-Feb-15 10:30N 38°42' W 009°10'0 0.0
2018-Feb-15 10:00N 38°42' W 009°10'0 0.0
2018-Feb-15 09:28N 38°42' W 009°10'0 0.0
2018-Feb-15 08:58N 38°42' W 009°10'0 0.0
2018-Feb-15 08:25N 38°42' W 009°10'0 0.0
2018-Feb-15 08:00N 38°42' W 009°10'0 0.0
2018-Feb-15 07:30N 38°42' W 009°10'0 0.0
2018-Feb-15 06:59N 38°42' W 009°10'0 0.0
2018-Feb-15 06:30N 38°42' W 009°10'0 0.0
2018-Feb-15 06:00N 38°42' W 009°10'0 0.0
2018-Feb-15 05:30N 38°42' W 009°10'0 0.0
2018-Feb-15 05:00N 38°42' W 009°10'0 0.0
2018-Feb-15 04:30N 38°42' W 009°10'0 0.0
2018-Feb-15 03:59N 38°42' W 009°10'0 0.0
2018-Feb-15 03:29N 38°42' W 009°10'0 0.0
2018-Feb-15 02:58N 38°42' W 009°10'0 0.0
2018-Feb-15 02:30N 38°42' W 009°10'0 0.0
2018-Feb-15 02:00N 38°42' W 009°10'0 0.0
2018-Feb-15 01:30N 38°42' W 009°10'0 0.0
2018-Feb-15 00:58N 38°42' W 009°10'0 0.0
2018-Feb-15 00:30N 38°42' W 009°10'0 0.0
2018-Feb-15 00:00N 38°42' W 009°10'  

Dump ship's entire track history